createdAt,value
2023-09-06T00:00:47.369Z,5.50
2023-09-06T00:03:15.676Z,5.50
2023-09-06T00:05:43.121Z,6.50
2023-09-06T00:08:11.143Z,6.45
2023-09-06T00:10:41.552Z,6.57
2023-09-06T00:13:09.224Z,6.68
2023-09-06T00:15:36.773Z,7.35
2023-09-06T00:18:08.218Z,6.95
2023-09-06T00:20:36.036Z,7.85
2023-09-06T00:23:05.729Z,7.05
2023-09-06T00:25:33.453Z,7.38
2023-09-06T00:28:02.086Z,8.18
2023-09-06T00:30:28.964Z,7.15
2023-09-06T00:32:55.955Z,7.45
2023-09-06T00:35:25.466Z,7.05
2023-09-06T00:37:55.926Z,7.63
2023-09-06T00:40:23.353Z,7.63
2023-09-06T00:42:52.673Z,7.30
2023-09-06T00:45:23.583Z,7.40
2023-09-06T00:47:56.360Z,7.50
2023-09-06T00:50:24.351Z,7.38
2023-09-06T00:52:52.833Z,7.00
2023-09-06T00:55:20.743Z,7.47
2023-09-06T00:57:48.900Z,7.65
2023-09-06T01:00:19.046Z,7.47
2023-09-06T01:02:47.352Z,7.45
2023-09-06T01:05:17.822Z,8.13
2023-09-06T01:07:48.655Z,7.60
2023-09-06T01:10:15.440Z,7.97
2023-09-06T01:12:42.233Z,7.32
2023-09-06T01:15:11.942Z,7.22
2023-09-06T01:17:42.758Z,7.60
2023-09-06T01:20:16.603Z,9.02
2023-09-06T01:22:51.064Z,7.53
2023-09-06T01:25:18.389Z,8.73
2023-09-06T01:27:46.149Z,8.70
2023-09-06T01:30:13.133Z,7.90
2023-09-06T01:32:42.079Z,8.07
2023-09-06T01:35:11.812Z,8.88
2023-09-06T01:37:38.761Z,8.10
2023-09-06T01:40:19.327Z,9.00
2023-09-06T01:42:46.061Z,7.97
2023-09-06T01:45:15.858Z,9.13
2023-09-06T01:47:42.608Z,8.48
2023-09-06T01:50:09.800Z,8.88
2023-09-06T01:52:37.942Z,8.68
2023-09-06T01:55:07.797Z,8.43
2023-09-06T01:57:34.631Z,9.07
2023-09-06T02:00:01.443Z,8.57
2023-09-06T02:02:28.232Z,9.18
2023-09-06T02:04:55.310Z,8.85
2023-09-06T02:07:22.035Z,8.10
2023-09-06T02:09:48.956Z,8.75
2023-09-06T02:12:15.871Z,9.05
2023-09-06T02:14:42.685Z,7.20
2023-09-06T02:17:09.531Z,8.10
2023-09-06T02:19:36.291Z,8.73
2023-09-06T02:22:04.185Z,7.75
2023-09-06T02:24:31.236Z,8.80
2023-09-06T02:26:59.645Z,9.18
2023-09-06T02:29:29.160Z,8.00
2023-09-06T02:31:56.076Z,8.75
2023-09-06T02:34:22.910Z,8.35
2023-09-06T02:36:49.798Z,8.50
2023-09-06T02:39:16.539Z,8.10
2023-09-06T02:41:43.206Z,8.32
2023-09-06T02:44:09.888Z,8.68
2023-09-06T02:46:36.711Z,7.30
2023-09-06T02:49:12.317Z,7.53
2023-09-06T02:51:44.929Z,8.30
2023-09-06T02:54:11.693Z,8.13
2023-09-06T02:56:38.860Z,8.15
2023-09-06T02:59:08.597Z,8.18
2023-09-06T03:01:39.338Z,7.97
2023-09-06T03:04:07.960Z,8.10
2023-09-06T03:06:35.436Z,7.32
2023-09-06T03:09:07.211Z,8.48
2023-09-06T03:11:33.926Z,8.15
2023-09-06T03:14:00.681Z,7.45
2023-09-06T03:16:28.333Z,8.10
2023-09-06T03:18:55.296Z,8.18
2023-09-06T03:21:22.596Z,7.95
2023-09-06T03:23:50.156Z,8.05
2023-09-06T03:26:16.932Z,9.85
2023-09-06T03:28:43.835Z,9.70
2023-09-06T03:31:10.824Z,9.77
2023-09-06T03:33:39.639Z,11.25
2023-09-06T03:36:10.780Z,12.15
2023-09-06T03:38:37.760Z,13.43
2023-09-06T03:41:08.343Z,12.75
2023-09-06T03:43:35.426Z,12.60
2023-09-06T03:46:10.519Z,13.40
2023-09-06T03:48:37.950Z,12.30
2023-09-06T03:51:05.552Z,12.20
2023-09-06T03:53:32.962Z,14.55
2023-09-06T03:56:01.569Z,14.30
2023-09-06T03:58:28.910Z,14.70
2023-09-06T04:00:57.371Z,14.18
2023-09-06T04:03:24.657Z,12.73
2023-09-06T04:05:54.230Z,12.55
2023-09-06T04:08:21.727Z,12.50
2023-09-06T04:10:50.575Z,11.48
2023-09-06T04:13:17.371Z,11.30
2023-09-06T04:15:44.462Z,10.82
2023-09-06T04:18:13.080Z,9.30
2023-09-06T04:20:45.804Z,9.30
2023-09-06T04:23:15.870Z,9.57
2023-09-06T04:25:44.444Z,9.27
2023-09-06T04:28:12.419Z,9.07
2023-09-06T04:30:42.052Z,8.65
2023-09-06T04:33:11.451Z,8.77
2023-09-06T04:35:40.395Z,9.40
2023-09-06T04:38:10.898Z,9.15
2023-09-06T04:40:39.082Z,9.27
2023-09-06T04:43:09.385Z,8.18
2023-09-06T04:45:39.380Z,8.77
2023-09-06T04:48:11.917Z,8.52
2023-09-06T04:50:42.552Z,8.50
2023-09-06T04:53:10.225Z,8.15
2023-09-06T04:55:37.614Z,8.52
2023-09-06T04:58:05.816Z,10.15
2023-09-06T05:00:36.445Z,12.80
2023-09-06T05:03:04.222Z,13.02
2023-09-06T05:05:31.449Z,14.57
2023-09-06T05:07:58.455Z,13.57
2023-09-06T05:10:25.917Z,13.23
2023-09-06T05:12:52.969Z,12.77
2023-09-06T05:15:19.765Z,11.38
2023-09-06T05:17:46.631Z,9.65
2023-09-06T05:20:36.627Z,10.27
2023-09-06T05:23:14.099Z,9.80
2023-09-06T05:25:42.405Z,10.18
2023-09-06T05:28:14.007Z,10.18
2023-09-06T05:30:42.645Z,11.27
2023-09-06T05:33:09.904Z,11.18
2023-09-06T05:35:37.329Z,9.30
2023-09-06T05:38:04.407Z,9.23
2023-09-06T05:40:33.615Z,9.02
2023-09-06T05:43:00.527Z,8.57
2023-09-06T05:45:28.036Z,9.75
2023-09-06T05:47:55.210Z,8.65
2023-09-06T05:50:22.174Z,8.43
2023-09-06T05:52:49.322Z,9.00
2023-09-06T05:55:16.252Z,7.85
2023-09-06T05:57:43.326Z,8.32
2023-09-06T06:00:16.802Z,8.13
2023-09-06T06:02:45.870Z,8.30
2023-09-06T06:05:13.371Z,7.78
2023-09-06T06:07:40.710Z,8.63
2023-09-06T06:10:11.762Z,7.95
2023-09-06T06:12:40.184Z,7.88
2023-09-06T06:15:14.964Z,8.75
2023-09-06T06:17:42.856Z,7.60
2023-09-06T06:20:12.198Z,8.15
2023-09-06T06:22:39.887Z,7.78
2023-09-06T06:25:13.899Z,8.23
2023-09-06T06:27:41.990Z,8.52
2023-09-06T06:30:09.524Z,7.65
2023-09-06T06:32:36.910Z,6.90
2023-09-06T06:35:07.413Z,7.95
2023-09-06T06:37:34.950Z,8.48
2023-09-06T06:40:01.783Z,8.50
2023-09-06T06:42:28.704Z,8.88
2023-09-06T06:44:55.660Z,8.75
2023-09-06T06:47:22.957Z,8.25
2023-09-06T06:49:53.946Z,8.70
2023-09-06T06:52:20.801Z,9.77
2023-09-06T06:54:47.709Z,8.57
2023-09-06T06:57:14.526Z,8.65
2023-09-06T06:59:41.557Z,8.23
2023-09-06T07:02:08.399Z,8.32
2023-09-06T07:04:35.390Z,8.85
2023-09-06T07:07:02.434Z,8.25
2023-09-06T07:09:29.377Z,8.15
2023-09-06T07:11:56.156Z,7.53
2023-09-06T07:14:23.224Z,7.65
2023-09-06T07:16:50.180Z,8.68
2023-09-06T07:19:17.302Z,8.13
2023-09-06T07:21:45.366Z,7.72
2023-09-06T07:24:14.494Z,7.40
2023-09-06T07:26:42.190Z,7.28
2023-09-06T07:29:11.484Z,7.47
2023-09-06T07:31:38.393Z,8.07
2023-09-06T07:34:05.320Z,8.73
2023-09-06T07:36:32.189Z,9.13
2023-09-06T07:38:58.998Z,9.57
2023-09-06T07:41:28.882Z,9.68
2023-09-06T07:43:55.781Z,9.65
2023-09-06T07:46:27.986Z,9.18
2023-09-06T07:48:56.030Z,8.65
2023-09-06T07:51:23.225Z,8.65
2023-09-06T07:53:49.992Z,9.05
2023-09-06T07:56:16.760Z,9.57
2023-09-06T07:58:43.526Z,8.07
2023-09-06T08:01:18.898Z,8.20
2023-09-06T08:03:47.660Z,8.15
2023-09-06T08:06:15.934Z,7.80
2023-09-06T08:08:43.016Z,8.15
2023-09-06T08:11:10.324Z,6.97
2023-09-06T08:13:42.526Z,7.35
2023-09-06T08:16:10.303Z,7.25
2023-09-06T08:18:40.160Z,6.30
2023-09-06T08:21:08.874Z,6.30
2023-09-06T08:23:35.850Z,6.03
2023-09-06T08:26:02.746Z,5.75
2023-09-06T08:28:30.253Z,5.50
2023-09-06T08:30:58.064Z,6.88
2023-09-06T08:33:25.912Z,6.90
2023-09-06T08:35:52.922Z,5.80
2023-09-06T08:38:19.672Z,6.15
2023-09-06T08:40:46.518Z,6.20
2023-09-06T08:43:15.879Z,5.65
2023-09-06T08:45:45.100Z,5.68
2023-09-06T08:48:13.411Z,6.38
2023-09-06T08:50:40.694Z,6.65
2023-09-06T08:53:11.974Z,5.82
2023-09-06T08:55:39.022Z,6.05
2023-09-06T08:58:06.731Z,4.97
2023-09-06T09:00:35.200Z,4.90
2023-09-06T09:03:02.255Z,3.80
2023-09-06T09:05:29.230Z,3.90
2023-09-06T09:08:00.856Z,5.00
2023-09-06T09:10:34.110Z,4.32
2023-09-06T09:13:02.341Z,3.25
2023-09-06T09:15:34.325Z,4.03
2023-09-06T09:18:11.225Z,3.88
2023-09-06T09:20:41.655Z,3.83
2023-09-06T09:23:15.415Z,5.10
2023-09-06T09:25:50.097Z,4.90
2023-09-06T09:28:17.793Z,5.03
2023-09-06T09:30:47.515Z,5.63
2023-09-06T09:33:14.931Z,5.93
2023-09-06T09:35:42.374Z,4.57
2023-09-06T09:38:14.620Z,5.43
2023-09-06T09:40:52.795Z,5.47
2023-09-06T09:43:21.245Z,5.88
2023-09-06T09:45:49.207Z,4.55
2023-09-06T09:48:17.778Z,4.47
2023-09-06T09:50:47.822Z,3.83
2023-09-06T09:53:22.257Z,3.83
2023-09-06T09:55:52.557Z,4.13
2023-09-06T09:58:20.388Z,4.30
2023-09-06T10:00:51.912Z,4.30
2023-09-06T10:03:19.935Z,3.78
2023-09-06T10:05:48.643Z,3.92
2023-09-06T10:08:20.092Z,4.15
2023-09-06T10:10:47.057Z,3.83
2023-09-06T10:13:16.298Z,4.07
2023-09-06T10:15:45.401Z,3.55
2023-09-06T10:18:13.110Z,3.95
2023-09-06T10:20:41.244Z,3.90
2023-09-06T10:23:09.116Z,4.82
2023-09-06T10:25:44.623Z,4.38
2023-09-06T10:28:14.912Z,3.97
2023-09-06T10:30:49.175Z,4.20
2023-09-06T10:33:34.155Z,4.17
2023-09-06T10:36:09.911Z,4.43
2023-09-06T10:38:52.552Z,4.45
2023-09-06T10:41:28.666Z,5.10
2023-09-06T10:44:08.382Z,5.78
2023-09-06T10:46:36.721Z,4.30
2023-09-06T10:49:19.240Z,7.97
2023-09-06T10:52:10.036Z,4.93
2023-09-06T10:54:42.534Z,4.65
2023-09-06T10:57:11.883Z,4.60
2023-09-06T10:59:59.863Z,6.07
2023-09-06T11:02:28.021Z,4.63
2023-09-06T11:05:06.787Z,5.45
2023-09-06T11:07:52.036Z,4.88
2023-09-06T11:10:24.490Z,5.10
2023-09-06T11:12:55.244Z,4.65
2023-09-06T11:15:26.875Z,3.75
2023-09-06T11:17:59.839Z,4.68
2023-09-06T11:20:27.486Z,4.07
2023-09-06T11:22:56.614Z,4.30
2023-09-06T11:25:24.855Z,4.88
2023-09-06T11:27:52.524Z,3.80
2023-09-06T11:30:22.819Z,5.85
2023-09-06T11:32:54.375Z,5.05
2023-09-06T11:35:25.745Z,4.72
2023-09-06T11:37:53.832Z,4.97
2023-09-06T11:40:22.268Z,4.07
2023-09-06T11:43:06.440Z,5.05
2023-09-06T11:45:34.023Z,4.65
2023-09-06T11:48:07.092Z,4.63
2023-09-06T11:50:36.239Z,4.35
2023-09-06T11:53:07.171Z,3.92
2023-09-06T11:55:33.995Z,4.05
2023-09-06T11:58:01.694Z,3.92
2023-09-06T12:00:44.378Z,4.40
2023-09-06T12:03:20.375Z,4.05
2023-09-06T12:05:52.890Z,4.38
2023-09-06T12:08:24.107Z,4.50
2023-09-06T12:11:07.024Z,3.78
2023-09-06T12:13:38.763Z,4.15
2023-09-06T12:16:10.206Z,4.05
2023-09-06T12:18:37.678Z,3.78
2023-09-06T12:21:06.719Z,3.85
2023-09-06T12:23:37.960Z,4.00
2023-09-06T12:26:05.736Z,4.15
2023-09-06T12:28:33.451Z,3.55
2023-09-06T12:31:07.813Z,3.95
2023-09-06T12:33:39.533Z,3.88
2023-09-06T12:36:09.237Z,3.67
2023-09-06T12:38:36.001Z,3.83
2023-09-06T12:41:04.924Z,3.60
2023-09-06T12:43:35.957Z,4.43
2023-09-06T12:46:04.082Z,3.80
2023-09-06T12:48:31.272Z,3.30
2023-09-06T12:50:58.451Z,3.42
2023-09-06T12:53:25.468Z,3.65
2023-09-06T12:55:52.541Z,3.33
2023-09-06T12:58:19.284Z,3.40
2023-09-06T13:00:46.314Z,3.10
2023-09-06T13:03:13.299Z,3.15
2023-09-06T13:05:44.388Z,3.22
2023-09-06T13:08:11.396Z,3.88
2023-09-06T13:10:40.066Z,2.90
2023-09-06T13:13:07.242Z,2.95
2023-09-06T13:15:34.042Z,2.80
2023-09-06T13:18:01.252Z,2.33
2023-09-06T13:20:28.159Z,2.58
2023-09-06T13:22:54.928Z,3.10
2023-09-06T13:25:21.760Z,3.47
2023-09-06T13:27:48.554Z,2.80
2023-09-06T13:30:15.421Z,2.67
2023-09-06T13:32:42.165Z,2.75
2023-09-06T13:35:09.253Z,8.45
2023-09-06T13:37:36.094Z,2.60
2023-09-06T13:40:03.419Z,2.92
2023-09-06T13:42:30.285Z,2.88
2023-09-06T13:44:57.572Z,2.45
2023-09-06T13:47:24.442Z,2.55
2023-09-06T13:49:51.761Z,2.72
2023-09-06T13:52:18.984Z,2.58
2023-09-06T13:54:46.166Z,2.08
2023-09-06T13:57:13.031Z,2.50
2023-09-06T13:59:41.170Z,2.58
2023-09-06T14:02:09.021Z,2.90
2023-09-06T14:04:36.039Z,2.80
2023-09-06T14:07:03.118Z,2.40
2023-09-06T14:09:30.547Z,2.40
2023-09-06T14:11:57.406Z,2.65
2023-09-06T14:14:24.836Z,2.50
2023-09-06T14:16:52.314Z,2.53
2023-09-06T14:19:19.237Z,2.80
2023-09-06T14:21:49.165Z,2.53
2023-09-06T14:24:16.706Z,2.72
2023-09-06T14:26:44.492Z,2.90
2023-09-06T14:29:15.190Z,2.42
2023-09-06T14:31:42.614Z,3.00
2023-09-06T14:34:09.475Z,3.08
2023-09-06T14:36:36.539Z,2.63
2023-09-06T14:39:05.780Z,4.05
2023-09-06T14:41:35.049Z,3.20
2023-09-06T14:44:02.258Z,2.70
2023-09-06T14:46:29.175Z,2.95
2023-09-06T14:48:56.353Z,3.13
2023-09-06T14:51:25.252Z,3.40
2023-09-06T14:53:52.185Z,3.70
2023-09-06T14:56:19.513Z,3.13
2023-09-06T14:58:46.363Z,3.25
2023-09-06T15:01:13.233Z,3.20
2023-09-06T15:03:40.188Z,3.55
2023-09-06T15:06:08.878Z,3.13
2023-09-06T15:08:36.141Z,3.28
2023-09-06T15:11:03.155Z,4.15
2023-09-06T15:13:31.521Z,3.75
2023-09-06T15:15:58.580Z,3.80
2023-09-06T15:18:25.648Z,3.47
2023-09-06T15:20:52.532Z,3.65
2023-09-06T15:23:19.599Z,3.70
2023-09-06T15:25:46.668Z,3.00
2023-09-06T15:28:13.698Z,4.03
2023-09-06T15:30:40.861Z,3.40
2023-09-06T15:33:07.878Z,3.63
2023-09-06T15:35:34.904Z,3.42
2023-09-06T15:38:04.924Z,3.38
2023-09-06T15:40:34.088Z,3.45
2023-09-06T15:43:01.264Z,3.25
2023-09-06T15:45:27.992Z,3.33
2023-09-06T15:47:54.932Z,3.40
2023-09-06T15:50:23.819Z,3.72
2023-09-06T15:52:51.517Z,4.40
2023-09-06T15:55:18.801Z,3.33
2023-09-06T15:57:46.021Z,3.03
2023-09-06T16:00:28.659Z,3.50
2023-09-06T16:02:58.485Z,4.03
2023-09-06T16:05:25.590Z,3.58
2023-09-06T16:07:52.398Z,4.07
2023-09-06T16:10:19.340Z,3.53
2023-09-06T16:12:49.053Z,3.95
2023-09-06T16:15:17.198Z,4.50
2023-09-06T16:17:46.065Z,3.90
2023-09-06T16:20:13.709Z,3.88
2023-09-06T16:22:40.529Z,3.88
2023-09-06T16:25:09.058Z,4.32
2023-09-06T16:27:36.791Z,4.47
2023-09-06T16:30:07.246Z,4.00
2023-09-06T16:32:34.799Z,3.50
2023-09-06T16:35:08.602Z,4.43
2023-09-06T16:37:36.393Z,3.40
2023-09-06T16:40:03.320Z,3.78
2023-09-06T16:42:30.212Z,3.58
2023-09-06T16:44:56.927Z,4.00
2023-09-06T16:47:24.385Z,3.38
2023-09-06T16:49:52.966Z,3.90
2023-09-06T16:52:19.851Z,3.35
2023-09-06T16:54:46.690Z,3.90
2023-09-06T16:57:13.577Z,3.80
2023-09-06T16:59:40.289Z,3.90
2023-09-06T17:02:07.370Z,3.70
2023-09-06T17:04:34.278Z,3.75
2023-09-06T17:07:01.012Z,4.07
2023-09-06T17:09:29.221Z,3.85
2023-09-06T17:11:56.160Z,4.38
2023-09-06T17:14:23.037Z,4.38
2023-09-06T17:16:49.966Z,3.90
2023-09-06T17:19:17.544Z,3.97
2023-09-06T17:21:44.314Z,3.88
2023-09-06T17:24:11.187Z,3.67
2023-09-06T17:26:38.319Z,3.97
2023-09-06T17:29:09.863Z,3.75
2023-09-06T17:31:37.396Z,3.42
2023-09-06T17:34:04.472Z,5.40
2023-09-06T17:36:31.307Z,3.65
2023-09-06T17:38:58.120Z,3.92
2023-09-06T17:41:25.373Z,4.20
2023-09-06T17:43:52.338Z,3.63
2023-09-06T17:46:25.394Z,3.40
2023-09-06T17:48:54.513Z,3.88
2023-09-06T17:51:21.758Z,4.07
2023-09-06T17:53:48.903Z,3.70
2023-09-06T17:56:21.165Z,4.65
2023-09-06T17:58:50.704Z,3.70
2023-09-06T18:01:20.173Z,4.05
2023-09-06T18:03:52.536Z,5.75
2023-09-06T18:06:26.557Z,5.65
2023-09-06T18:08:59.353Z,8.33
2023-09-06T18:11:26.593Z,4.55
2023-09-06T18:13:53.804Z,5.00
2023-09-06T18:16:21.504Z,5.93
2023-09-06T18:18:51.619Z,5.95
2023-09-06T18:21:18.583Z,4.88
2023-09-06T18:23:47.610Z,4.03
2023-09-06T18:26:14.750Z,4.30
2023-09-06T18:28:41.693Z,5.03
2023-09-06T18:31:09.435Z,4.30
2023-09-06T18:33:37.881Z,4.70
2023-09-06T18:36:09.737Z,4.55
2023-09-06T18:38:38.379Z,4.00
2023-09-06T18:41:10.621Z,3.65
2023-09-06T18:43:41.457Z,7.88
2023-09-06T18:46:08.895Z,5.45
2023-09-06T18:48:36.852Z,4.75
2023-09-06T18:51:08.757Z,4.63
2023-09-06T18:53:36.326Z,3.92
2023-09-06T18:56:09.491Z,3.95
2023-09-06T18:58:37.846Z,5.22
2023-09-06T19:01:15.061Z,4.30
2023-09-06T19:03:42.931Z,4.07
2023-09-06T19:06:13.297Z,4.65
2023-09-06T19:08:40.544Z,4.57
2023-09-06T19:11:08.137Z,4.70
2023-09-06T19:13:34.999Z,4.97
2023-09-06T19:16:01.815Z,4.63
2023-09-06T19:18:28.903Z,4.65
2023-09-06T19:20:56.183Z,4.80
2023-09-06T19:23:23.079Z,4.47
2023-09-06T19:25:55.479Z,4.35
2023-09-06T19:28:23.974Z,4.40
2023-09-06T19:30:56.356Z,5.10
2023-09-06T19:33:23.500Z,4.65
2023-09-06T19:35:50.399Z,4.65
2023-09-06T19:38:21.353Z,4.43
2023-09-06T19:40:50.791Z,4.53
2023-09-06T19:43:17.649Z,4.93
2023-09-06T19:45:46.910Z,5.00
2023-09-06T19:48:14.039Z,5.32
2023-09-06T19:50:40.815Z,5.03
2023-09-06T19:53:07.743Z,4.63
2023-09-06T19:55:37.669Z,5.28
2023-09-06T19:58:04.576Z,5.20
2023-09-06T20:00:31.373Z,4.50
2023-09-06T20:02:58.265Z,4.95
2023-09-06T20:05:25.482Z,5.18
2023-09-06T20:07:54.933Z,5.45
2023-09-06T20:10:21.856Z,5.03
2023-09-06T20:12:48.633Z,4.88
2023-09-06T20:15:16.386Z,5.47
2023-09-06T20:17:43.849Z,4.88
2023-09-06T20:20:11.274Z,5.38
2023-09-06T20:22:38.148Z,5.25
2023-09-06T20:25:06.320Z,5.90
2023-09-06T20:27:33.162Z,5.75
2023-09-06T20:30:00.048Z,5.78
2023-09-06T20:32:26.993Z,6.20
2023-09-06T20:34:53.811Z,5.53
2023-09-06T20:37:20.597Z,7.30
2023-09-06T20:39:47.354Z,6.00
2023-09-06T20:42:14.064Z,6.25
2023-09-06T20:44:40.825Z,6.43
2023-09-06T20:47:07.615Z,6.80
2023-09-06T20:49:34.436Z,7.07
2023-09-06T20:52:01.357Z,7.03
2023-09-06T20:54:28.203Z,6.72
2023-09-06T20:56:54.984Z,6.82
2023-09-06T20:59:22.337Z,6.88
2023-09-06T21:01:49.069Z,5.97
2023-09-06T21:04:15.871Z,6.45
2023-09-06T21:06:42.762Z,7.10
2023-09-06T21:09:11.558Z,6.97
2023-09-06T21:11:39.078Z,6.90
2023-09-06T21:14:06.001Z,7.13
2023-09-06T21:16:32.814Z,6.65
2023-09-06T21:18:59.703Z,7.13
2023-09-06T21:21:26.567Z,7.43
2023-09-06T21:23:53.327Z,6.97
2023-09-06T21:26:20.893Z,7.47
2023-09-06T21:28:48.650Z,7.47
2023-09-06T21:31:15.421Z,7.40
2023-09-06T21:33:42.409Z,8.38
2023-09-06T21:36:09.651Z,8.15
2023-09-06T21:38:36.597Z,7.88
2023-09-06T21:41:03.360Z,8.15
2023-09-06T21:43:30.230Z,8.38
2023-09-06T21:45:57.112Z,7.95
2023-09-06T21:48:25.243Z,7.68
2023-09-06T21:51:05.887Z,7.45
2023-09-06T21:53:32.651Z,7.38
2023-09-06T21:55:59.396Z,7.40
2023-09-06T21:58:26.232Z,7.43
2023-09-06T22:00:53.038Z,8.18
2023-09-06T22:03:19.876Z,6.53
2023-09-06T22:05:49.462Z,6.82
2023-09-06T22:08:16.183Z,7.03
2023-09-06T22:10:42.978Z,7.35
2023-09-06T22:13:09.853Z,7.35
2023-09-06T22:15:36.694Z,6.47
2023-09-06T22:18:03.678Z,7.15
2023-09-06T22:20:34.750Z,6.22
2023-09-06T22:23:01.828Z,6.53
2023-09-06T22:25:28.701Z,6.82
2023-09-06T22:27:58.358Z,6.90
2023-09-06T22:30:25.199Z,6.97
2023-09-06T22:32:51.918Z,6.93
2023-09-06T22:35:19.250Z,8.65
2023-09-06T22:37:45.977Z,6.97
2023-09-06T22:40:12.690Z,6.35
2023-09-06T22:42:40.160Z,6.32
2023-09-06T22:45:07.161Z,7.78
2023-09-06T22:47:33.908Z,7.13
2023-09-06T22:50:00.664Z,6.43
2023-09-06T22:52:27.880Z,6.50
2023-09-06T22:54:54.797Z,6.75
2023-09-06T22:57:21.814Z,7.30
2023-09-06T22:59:48.552Z,6.40
2023-09-06T23:02:15.301Z,6.45
2023-09-06T23:04:42.892Z,7.25
2023-09-06T23:07:09.673Z,6.53
2023-09-06T23:09:36.507Z,6.53
2023-09-06T23:12:06.054Z,6.55
2023-09-06T23:14:38.012Z,6.60
2023-09-06T23:17:08.474Z,6.82
2023-09-06T23:19:45.339Z,7.18
2023-09-06T23:22:15.086Z,6.55
2023-09-06T23:24:44.986Z,7.35
2023-09-06T23:27:18.746Z,6.90
2023-09-06T23:29:51.767Z,7.30
2023-09-06T23:32:21.112Z,7.90
2023-09-06T23:34:50.513Z,7.03
2023-09-06T23:37:17.457Z,6.93
2023-09-06T23:39:45.812Z,7.38
2023-09-06T23:42:15.306Z,8.13
2023-09-06T23:44:43.410Z,7.78
2023-09-06T23:47:12.286Z,7.13
2023-09-06T23:49:40.183Z,7.85
2023-09-06T23:52:08.980Z,7.68
2023-09-06T23:54:46.271Z,6.70
2023-09-06T23:57:14.315Z,7.15
2023-09-06T23:59:41.067Z,6.68
